Time;durP1;ratioP1;P1;durP2;ratioP2;P2;SDS_P1;SDS_P2;PMS_P1;PMS_P2;Temp;Humidity;BMP_temperature;BMP_pressure;BME280_temperature;BME280_humidity;BME280_pressure;Samples;Min_cycle;Max_cycle;Signal;HPM_P1;HPM_P2
2022/03/05 00:01:41;;;;;;;30.15;16.77;;;-0.20;99.90;;;;;;5031348;28;20069;-68
2022/03/05 00:04:09;;;;;;;30.33;16.98;;;-0.20;99.90;;;;;;5031057;28;20141;-68
2022/03/05 00:06:36;;;;;;;32.55;17.60;;;-0.20;99.90;;;;;;5030645;28;20064;-68
2022/03/05 00:09:03;;;;;;;30.45;16.55;;;-0.30;99.90;;;;;;5031246;28;20053;-68
2022/03/05 00:11:32;;;;;;;32.13;16.13;;;-0.30;99.90;;;;;;5028900;28;20045;-68
2022/03/05 00:13:59;;;;;;;34.42;17.48;;;-0.30;99.90;;;;;;5031229;28;20045;-68
2022/03/05 00:16:26;;;;;;;37.42;18.27;;;-0.30;99.90;;;;;;5029006;28;20514;-68
2022/03/05 00:18:54;;;;;;;32.47;16.83;;;-0.30;99.90;;;;;;5029872;28;20418;-69
2022/03/05 00:21:21;;;;;;;31.75;17.02;;;-0.30;99.90;;;;;;5030852;28;20404;-68
2022/03/05 00:23:49;;;;;;;31.00;17.50;;;-0.30;99.90;;;;;;5030652;28;20037;-68
2022/03/05 00:26:17;;;;;;;29.60;16.40;;;-0.40;99.90;;;;;;5029742;28;20129;-68
2022/03/05 00:28:44;;;;;;;27.73;15.57;;;-0.40;99.90;;;;;;5029423;28;20551;-68
2022/03/05 00:31:11;;;;;;;29.20;15.73;;;-0.40;99.90;;;;;;5029994;28;20049;-67
2022/03/05 00:33:39;;;;;;;31.25;16.80;;;-0.40;99.90;;;;;;5028932;28;20068;-68
2022/03/05 00:36:07;;;;;;;30.40;16.27;;;-0.40;99.90;;;;;;5030117;28;20076;-68
2022/03/05 00:38:34;;;;;;;31.65;16.40;;;-0.40;99.90;;;;;;5030031;28;20064;-67
2022/03/05 00:41:01;;;;;;;29.65;15.93;;;-0.40;99.90;;;;;;5030146;28;20050;-68
2022/03/05 00:43:30;;;;;;;29.65;16.40;;;-0.50;99.90;;;;;;5030945;28;20524;-68
2022/03/05 00:45:57;;;;;;;33.88;16.95;;;-0.50;99.90;;;;;;5033048;28;20128;-68
2022/03/05 00:48:25;;;;;;;34.08;16.75;;;-0.50;99.90;;;;;;5034225;28;20521;-68
2022/03/05 00:50:54;;;;;;;29.40;16.50;;;-0.50;99.90;;;;;;5031919;28;20457;-68
2022/03/05 00:53:22;;;;;;;35.75;16.83;;;-0.60;99.90;;;;;;5033580;28;20053;-67
2022/03/05 00:55:50;;;;;;;42.75;19.77;;;-0.60;99.90;;;;;;5037689;28;20051;-67
2022/03/05 00:58:17;;;;;;;35.30;18.00;;;-0.60;99.90;;;;;;5030388;28;20512;-67
2022/03/05 01:00:44;;;;;;;32.65;17.15;;;-0.60;99.90;;;;;;5023330;28;20045;-67
2022/03/05 01:03:12;;;;;;;30.33;16.25;;;-0.60;99.90;;;;;;5034445;28;20547;-67
2022/03/05 01:05:39;;;;;;;30.77;16.33;;;-0.60;99.90;;;;;;5033064;28;20045;-67
2022/03/05 01:08:07;;;;;;;31.92;17.05;;;-0.60;99.90;;;;;;5033614;28;20049;-67
2022/03/05 01:10:34;;;;;;;31.10;16.80;;;-0.60;99.90;;;;;;5035320;28;20045;-67
2022/03/05 01:13:03;;;;;;;31.33;16.50;;;-0.60;99.90;;;;;;5033772;28;20220;-67
2022/03/05 01:15:30;;;;;;;30.38;15.60;;;-0.60;99.90;;;;;;5032718;28;20050;-67
2022/03/05 01:17:57;;;;;;;30.45;16.63;;;-0.60;99.90;;;;;;5034973;28;20636;-67
2022/03/05 01:20:26;;;;;;;29.23;15.95;;;-0.60;99.90;;;;;;5031591;28;20052;-68
2022/03/05 01:22:54;;;;;;;29.02;16.17;;;-0.60;99.90;;;;;;5031282;28;20428;-68
2022/03/05 01:25:22;;;;;;;30.10;16.15;;;-0.50;99.90;;;;;;5033756;28;20177;-68
2022/03/05 01:27:49;;;;;;;31.95;16.75;;;-0.50;99.90;;;;;;5029776;28;20037;-68
2022/03/05 01:30:16;;;;;;;32.28;17.70;;;-0.50;99.90;;;;;;5032171;28;20045;-69
2022/03/05 01:32:44;;;;;;;34.03;16.88;;;-0.50;99.90;;;;;;5033059;28;20500;-67
2022/03/05 01:35:12;;;;;;;33.03;16.65;;;-0.50;99.90;;;;;;4999532;28;20491;-68
2022/03/05 01:37:45;;;;;;;32.72;16.98;;;-0.50;99.90;;;;;;5033085;28;20057;-67
2022/03/05 01:40:12;;;;;;;31.88;16.77;;;-0.50;99.90;;;;;;5033250;28;20399;-67
2022/03/05 01:42:39;;;;;;;33.10;17.95;;;-0.50;99.90;;;;;;5032376;28;20049;-68
2022/03/05 01:45:11;;;;;;;33.10;17.58;;;-0.50;99.90;;;;;;5033690;28;20083;-68
2022/03/05 01:47:39;;;;;;;32.60;17.73;;;-0.50;99.90;;;;;;5033060;28;20060;-67
2022/03/05 01:50:08;;;;;;;32.10;16.58;;;-0.50;99.90;;;;;;5030466;28;20427;-67
2022/03/05 01:52:35;;;;;;;29.38;15.98;;;-0.50;99.90;;;;;;5030703;28;20105;-67
2022/03/05 01:55:04;;;;;;;33.53;16.80;;;-0.50;99.90;;;;;;5034050;28;20540;-67
2022/03/05 01:57:31;;;;;;;30.70;16.42;;;-0.50;99.90;;;;;;5031590;28;20049;-67
2022/03/05 01:59:59;;;;;;;30.48;16.05;;;-0.50;99.90;;;;;;5037209;28;20044;-67
2022/03/05 02:02:26;;;;;;;30.38;16.27;;;-0.50;99.90;;;;;;5011159;28;20060;-68
2022/03/05 02:04:54;;;;;;;31.45;17.13;;;-0.50;99.90;;;;;;5028267;28;20416;-67
2022/03/05 02:07:21;;;;;;;31.92;17.05;;;-0.50;99.90;;;;;;5026326;28;20033;-68
2022/03/05 02:09:49;;;;;;;34.80;17.42;;;-0.50;99.90;;;;;;5030654;28;20660;-67
2022/03/05 02:12:16;;;;;;;34.78;17.85;;;-0.60;99.90;;;;;;5026900;28;20386;-67
2022/03/05 02:14:44;;;;;;;32.55;17.38;;;-0.60;99.90;;;;;;5031741;28;20585;-67
2022/03/05 02:17:11;;;;;;;30.55;16.90;;;-0.60;99.90;;;;;;5044552;28;20143;-67
2022/03/05 02:19:39;;;;;;;32.72;17.67;;;-0.60;99.90;;;;;;5033142;28;20073;-67
2022/03/05 02:22:10;;;;;;;39.10;17.88;;;-0.60;99.90;;;;;;5039445;28;20030;-67
2022/03/05 02:24:38;;;;;;;32.55;16.25;;;-0.60;99.90;;;;;;5045948;28;20107;-67
2022/03/05 02:27:07;;;;;;;35.47;17.48;;;-0.60;99.90;;;;;;5031743;28;20042;-67
2022/03/05 02:29:35;;;;;;;36.35;17.90;;;-0.60;99.90;;;;;;5045506;28;20056;-67
2022/03/05 02:32:05;;;;;;;31.58;16.40;;;-0.70;99.90;;;;;;5043441;28;20128;-67
2022/03/05 02:34:32;;;;;;;34.92;17.80;;;-0.70;99.90;;;;;;5036115;28;20133;-68
2022/03/05 02:37:00;;;;;;;30.42;16.50;;;-0.80;99.90;;;;;;5037582;28;20071;-67
2022/03/05 02:39:27;;;;;;;31.42;16.67;;;-0.80;99.90;;;;;;5033207;28;20030;-67
2022/03/05 02:41:55;;;;;;;33.25;16.65;;;-0.90;99.90;;;;;;5047703;28;20507;-67
2022/03/05 02:44:24;;;;;;;33.08;16.58;;;-0.90;99.90;;;;;;5039501;28;20548;-67
2022/03/05 02:46:51;;;;;;;35.08;17.17;;;-0.90;99.90;;;;;;5030527;28;20453;-67
2022/03/05 02:49:18;;;;;;;35.58;17.45;;;-0.90;99.90;;;;;;5030707;28;20488;-67
2022/03/05 02:51:46;;;;;;;35.25;18.23;;;-0.90;99.90;;;;;;5033568;28;20064;-68
2022/03/05 02:54:13;;;;;;;32.38;17.05;;;-0.90;99.90;;;;;;5034506;28;20052;-68
2022/03/05 02:56:40;;;;;;;33.22;17.55;;;-0.90;99.90;;;;;;5036896;28;20059;-68
2022/03/05 02:59:08;;;;;;;39.33;19.15;;;-0.90;99.90;;;;;;5020621;28;20390;-68
2022/03/05 03:01:35;;;;;;;33.20;16.23;;;-0.90;99.90;;;;;;5027185;28;20049;-67
2022/03/05 03:04:03;;;;;;;34.75;16.45;;;-0.80;99.90;;;;;;5021981;28;20565;-68
2022/03/05 03:06:31;;;;;;;32.53;16.67;;;-0.80;99.90;;;;;;5025380;28;20037;-68
2022/03/05 03:08:59;;;;;;;35.53;18.73;;;-0.70;99.90;;;;;;5014006;28;20477;-66
2022/03/05 03:11:27;;;;;;;35.70;18.25;;;-0.70;99.90;;;;;;5023669;28;20041;-67
2022/03/05 03:13:54;;;;;;;32.83;17.02;;;-0.70;99.90;;;;;;5031662;28;20148;-68
2022/03/05 03:16:21;;;;;;;34.92;17.63;;;-0.60;99.90;;;;;;5042013;28;20048;-68
2022/03/05 03:18:50;;;;;;;32.47;16.50;;;-0.60;99.90;;;;;;5040255;28;20041;-68
2022/03/05 03:21:17;;;;;;;32.65;17.63;;;-0.60;99.90;;;;;;5043134;28;20037;-68
2022/03/05 03:23:45;;;;;;;30.88;15.73;;;-0.60;99.90;;;;;;5038745;28;20733;-67
2022/03/05 03:26:12;;;;;;;32.45;16.83;;;-0.70;99.90;;;;;;5042673;28;20047;-68
2022/03/05 03:28:40;;;;;;;29.13;16.27;;;-0.60;99.90;;;;;;5040957;28;20051;-68
2022/03/05 03:31:08;;;;;;;35.63;17.95;;;-0.70;99.90;;;;;;5036442;28;20049;-68
2022/03/05 03:33:35;;;;;;;32.35;16.60;;;-0.70;99.90;;;;;;5024885;28;20543;-68
2022/03/05 03:36:03;;;;;;;35.08;18.23;;;-0.80;99.90;;;;;;5035923;28;20045;-67
2022/03/05 03:38:30;;;;;;;34.00;16.88;;;-0.80;99.90;;;;;;5040502;28;20077;-68
2022/03/05 03:40:57;;;;;;;34.25;18.83;;;-0.90;99.90;;;;;;5035791;28;20412;-67
2022/03/05 03:43:24;;;;;;;38.47;17.90;;;-1.00;99.90;;;;;;5038986;28;20052;-68
2022/03/05 03:45:52;;;;;;;33.92;17.98;;;-1.00;99.90;;;;;;5038967;28;20049;-68
2022/03/05 03:48:19;;;;;;;37.20;18.15;;;-1.00;99.90;;;;;;5036798;28;20408;-68
2022/03/05 03:50:47;;;;;;;33.25;17.25;;;-1.10;99.90;;;;;;5039023;28;20045;-68
2022/03/05 03:53:14;;;;;;;32.72;16.25;;;-1.10;99.90;;;;;;5029739;28;20042;-68
2022/03/05 03:55:42;;;;;;;29.92;16.48;;;-1.20;99.90;;;;;;5024474;28;20156;-68
2022/03/05 03:58:10;;;;;;;37.28;18.27;;;-1.20;99.90;;;;;;5035007;28;20447;-68
2022/03/05 04:00:38;;;;;;;33.15;16.67;;;-1.20;99.90;;;;;;5029465;28;20088;-67
2022/03/05 04:03:05;;;;;;;34.20;17.30;;;-1.30;99.90;;;;;;5029891;28;20497;-68
2022/03/05 04:05:32;;;;;;;32.97;16.48;;;-1.30;99.90;;;;;;5031667;28;20049;-67
2022/03/05 04:10:45;;;;;;;35.15;17.88;;;-1.20;99.90;;;;;;5028820;28;20067;-68
2022/03/05 04:13:14;;;;;;;32.53;16.95;;;-1.10;99.90;;;;;;5026069;28;20132;-69
2022/03/05 04:15:41;;;;;;;35.03;17.15;;;-1.10;99.90;;;;;;5029175;28;20054;-67
2022/03/05 04:18:09;;;;;;;32.90;17.52;;;-1.00;99.90;;;;;;5031753;28;20045;-68
2022/03/05 04:20:37;;;;;;;33.85;17.40;;;-0.90;99.90;;;;;;5019164;28;20053;-68
2022/03/05 04:23:04;;;;;;;36.25;17.67;;;-0.70;99.90;;;;;;5026718;28;20046;-68
2022/03/05 04:25:31;;;;;;;35.88;18.20;;;-0.60;99.90;;;;;;5033311;28;20503;-68
2022/03/05 04:27:59;;;;;;;32.55;16.58;;;-0.50;99.90;;;;;;5033926;28;20068;-68
2022/03/05 04:30:26;;;;;;;37.28;18.17;;;-0.50;99.90;;;;;;5034452;28;20045;-67
2022/03/05 04:32:53;;;;;;;34.03;17.63;;;-0.40;99.90;;;;;;5034878;28;20425;-68
2022/03/05 04:35:21;;;;;;;37.15;17.13;;;-0.40;99.90;;;;;;5039275;28;20041;-67
2022/03/05 04:37:48;;;;;;;33.63;17.40;;;-0.30;99.90;;;;;;5034788;28;20049;-68
2022/03/05 04:40:15;;;;;;;32.00;16.83;;;-0.30;99.90;;;;;;5040091;28;20131;-67
2022/03/05 04:42:43;;;;;;;37.63;17.92;;;-0.20;99.90;;;;;;5044690;28;20116;-68
2022/03/05 04:45:11;;;;;;;33.08;17.85;;;-0.20;99.90;;;;;;5051243;28;20470;-67
2022/03/05 04:47:39;;;;;;;34.65;16.30;;;-0.10;99.90;;;;;;5042609;28;20511;-68
2022/03/05 04:50:08;;;;;;;35.72;16.67;;;-0.10;99.90;;;;;;5048384;28;20049;-68
2022/03/05 04:52:37;;;;;;;33.05;16.42;;;-0.10;99.90;;;;;;5032825;28;20183;-68
2022/03/05 04:55:06;;;;;;;34.25;17.67;;;-0.10;99.90;;;;;;5046346;28;20073;-68
2022/03/05 04:57:34;;;;;;;33.90;17.20;;;-0.10;99.90;;;;;;5048869;28;20044;-68
2022/03/05 05:00:03;;;;;;;37.58;19.08;;;0.00;99.90;;;;;;5045790;28;20420;-68
2022/03/05 05:02:30;;;;;;;34.72;17.05;;;0.00;99.90;;;;;;5028738;28;20049;-68
2022/03/05 05:04:58;;;;;;;33.40;16.52;;;0.10;99.90;;;;;;5030177;28;20444;-68
2022/03/05 05:07:25;;;;;;;34.25;17.73;;;0.10;99.90;;;;;;5030631;28;20045;-68
2022/03/05 05:09:54;;;;;;;36.25;17.20;;;0.10;99.90;;;;;;5045636;28;20555;-68
2022/03/05 05:12:22;;;;;;;29.77;16.27;;;0.10;99.90;;;;;;5029907;28;20069;-68
2022/03/05 05:14:50;;;;;;;32.30;17.70;;;0.20;99.90;;;;;;5030864;28;20119;-68
2022/03/05 05:17:17;;;;;;;32.53;17.08;;;0.10;99.90;;;;;;5026047;28;20049;-68
2022/03/05 05:19:44;;;;;;;31.40;16.42;;;0.10;99.90;;;;;;5022101;28;20398;-67
2022/03/05 05:22:11;;;;;;;30.58;16.13;;;0.00;99.90;;;;;;5031909;28;20041;-68
2022/03/05 05:24:39;;;;;;;31.77;15.98;;;0.00;99.90;;;;;;5030962;28;20060;-68
2022/03/05 05:27:07;;;;;;;35.47;17.45;;;-0.10;99.90;;;;;;5028561;28;20044;-66
2022/03/05 05:29:34;;;;;;;32.13;16.38;;;-0.20;99.90;;;;;;5031712;28;20507;-67
2022/03/05 05:32:10;;;;;;;30.80;16.38;;;-0.20;99.90;;;;;;5024143;28;20488;-68
2022/03/05 05:34:39;;;;;;;32.03;16.05;;;-0.30;99.90;;;;;;5035312;28;20453;-68
2022/03/05 05:37:13;;;;;;;33.47;16.17;;;-0.30;99.90;;;;;;5038062;28;20049;-68
2022/03/05 05:39:41;;;;;;;31.20;16.88;;;-0.30;99.90;;;;;;5033690;28;20507;-67
2022/03/05 05:42:08;;;;;;;27.23;14.57;;;-0.30;99.90;;;;;;5034867;28;20464;-67
2022/03/05 05:44:36;;;;;;;32.33;16.65;;;-0.30;99.90;;;;;;5043027;28;20132;-67
2022/03/05 05:47:05;;;;;;;36.95;16.83;;;-0.30;99.90;;;;;;5046347;28;20128;-68
2022/03/05 05:49:33;;;;;;;31.63;16.35;;;-0.30;99.90;;;;;;5040918;28;20073;-68
2022/03/05 05:52:00;;;;;;;31.55;15.35;;;-0.20;99.90;;;;;;5029613;28;20044;-67
2022/03/05 05:54:28;;;;;;;37.35;16.15;;;-0.20;99.90;;;;;;5041570;28;20120;-67
2022/03/05 05:56:56;;;;;;;30.38;15.00;;;-0.20;99.90;;;;;;5048890;28;20045;-68
2022/03/05 05:59:23;;;;;;;33.67;16.90;;;-0.10;99.90;;;;;;5036294;28;20417;-68
2022/03/05 06:01:51;;;;;;;30.38;15.93;;;-0.10;99.90;;;;;;5031439;28;20053;-68
2022/03/05 06:04:18;;;;;;;31.08;14.75;;;0.00;99.90;;;;;;5044719;28;20056;-67
2022/03/05 06:06:46;;;;;;;29.00;14.85;;;0.00;99.90;;;;;;5034596;28;20411;-67
2022/03/05 06:09:13;;;;;;;31.40;15.27;;;0.00;99.90;;;;;;5034085;28;20463;-66
2022/03/05 06:11:40;;;;;;;32.33;16.48;;;0.10;99.90;;;;;;5029118;28;20073;-67
2022/03/05 06:14:07;;;;;;;37.55;17.08;;;0.10;99.90;;;;;;5033426;28;20451;-67
2022/03/05 06:16:35;;;;;;;32.83;17.05;;;0.20;99.90;;;;;;5032635;28;20500;-67
2022/03/05 06:19:02;;;;;;;30.33;16.55;;;0.30;99.90;;;;;;5032742;28;20053;-68
2022/03/05 06:21:30;;;;;;;32.80;16.15;;;0.40;99.90;;;;;;5032446;28;20043;-68
2022/03/05 06:23:57;;;;;;;33.72;15.80;;;0.50;99.90;;;;;;5018928;28;20038;-67
2022/03/05 06:26:28;;;;;;;33.67;17.10;;;0.50;99.90;;;;;;5020429;28;20097;-68
2022/03/05 06:28:55;;;;;;;31.30;15.25;;;0.60;99.90;;;;;;5036528;28;20048;-67
2022/03/05 06:31:23;;;;;;;29.27;15.68;;;0.60;99.90;;;;;;5042153;28;20053;-68
2022/03/05 06:33:50;;;;;;;34.38;16.98;;;0.70;99.90;;;;;;5048695;28;20428;-68
2022/03/05 06:36:18;;;;;;;34.70;16.73;;;0.70;99.90;;;;;;5024596;28;20429;-67
2022/03/05 06:38:47;;;;;;;36.08;17.83;;;0.70;99.90;;;;;;5029404;28;20088;-67
2022/03/05 06:41:14;;;;;;;32.28;15.88;;;0.80;99.90;;;;;;5043188;28;20042;-67
2022/03/05 06:43:41;;;;;;;33.40;15.82;;;0.90;99.90;;;;;;5033748;28;20473;-68
2022/03/05 06:46:09;;;;;;;25.67;14.88;;;1.00;99.90;;;;;;5033388;28;20095;-67
2022/03/05 06:48:36;;;;;;;34.05;16.02;;;1.00;99.90;;;;;;5049424;28;20045;-68
2022/03/05 06:51:03;;;;;;;31.08;15.43;;;1.10;99.90;;;;;;5036792;28;20045;-68
2022/03/05 06:53:31;;;;;;;29.33;15.60;;;1.20;99.90;;;;;;5041577;28;20053;-68
2022/03/05 06:55:58;;;;;;;33.03;16.33;;;1.30;99.90;;;;;;5033930;28;20048;-68
2022/03/05 06:58:25;;;;;;;31.98;15.98;;;1.30;99.90;;;;;;5037732;28;20064;-68
2022/03/05 07:00:53;;;;;;;27.52;15.73;;;1.40;99.90;;;;;;5039618;28;20041;-68
2022/03/05 07:03:20;;;;;;;30.13;14.60;;;1.50;99.90;;;;;;5035260;28;20096;-67
2022/03/05 07:05:48;;;;;;;27.88;15.32;;;1.50;99.90;;;;;;5031481;28;20563;-67
2022/03/05 07:08:15;;;;;;;33.80;16.67;;;1.50;99.90;;;;;;5043578;28;20053;-68
2022/03/05 07:10:42;;;;;;;32.60;16.00;;;1.60;99.90;;;;;;5032889;28;20037;-68
2022/03/05 07:13:09;;;;;;;31.77;17.00;;;1.70;99.90;;;;;;5029547;28;20520;-69
2022/03/05 07:15:37;;;;;;;29.30;15.50;;;1.80;99.90;;;;;;5028100;28;20084;-67
2022/03/05 07:18:04;;;;;;;28.65;15.20;;;1.90;99.90;;;;;;5026369;28;20096;-68
2022/03/05 07:20:31;;;;;;;32.55;16.30;;;2.00;99.90;;;;;;5032142;28;20057;-68
2022/03/05 07:22:58;;;;;;;34.25;16.85;;;2.10;99.90;;;;;;5032059;28;20045;-68
2022/03/05 07:25:26;;;;;;;31.52;17.00;;;2.30;99.90;;;;;;5032907;28;20471;-68
2022/03/05 07:27:53;;;;;;;30.63;15.80;;;2.40;99.90;;;;;;5023539;28;20042;-68
2022/03/05 07:30:20;;;;;;;29.10;15.95;;;2.50;99.90;;;;;;5032740;28;20125;-68
2022/03/05 07:32:48;;;;;;;29.17;15.48;;;2.60;99.90;;;;;;5036239;28;20049;-68
2022/03/05 07:35:16;;;;;;;33.45;16.58;;;2.80;99.90;;;;;;5037737;28;20053;-68
2022/03/05 07:37:43;;;;;;;29.42;16.55;;;2.90;99.90;;;;;;5014379;28;20128;-68
2022/03/05 07:40:14;;;;;;;30.60;15.40;;;3.10;99.90;;;;;;5040507;28;20049;-67
2022/03/05 07:42:41;;;;;;;28.20;15.88;;;3.20;99.90;;;;;;5031514;28;20396;-68
2022/03/05 07:45:08;;;;;;;31.25;15.77;;;3.20;99.90;;;;;;5032687;28;20050;-68
2022/03/05 07:47:36;;;;;;;34.90;16.15;;;3.40;99.90;;;;;;5041267;28;20037;-69
2022/03/05 07:50:05;;;;;;;26.08;14.95;;;3.50;99.90;;;;;;5035896;28;20127;-69
2022/03/05 07:52:32;;;;;;;29.10;15.20;;;3.60;99.90;;;;;;5034965;28;20060;-69
2022/03/05 07:54:59;;;;;;;29.63;15.27;;;3.70;99.90;;;;;;5044529;28;20090;-68
2022/03/05 07:57:27;;;;;;;33.40;17.08;;;3.70;99.90;;;;;;5036933;28;20452;-68
2022/03/05 07:59:54;;;;;;;28.52;15.68;;;3.70;99.90;;;;;;5041381;28;20037;-68
2022/03/05 08:02:41;;;;;;;26.55;14.55;;;3.70;99.90;;;;;;5018298;28;20480;-68
2022/03/05 08:05:09;;;;;;;28.95;15.57;;;3.70;99.90;;;;;;5037670;28;20045;-68
2022/03/05 08:07:37;;;;;;;25.98;14.95;;;3.80;99.90;;;;;;5035166;28;20442;-68
2022/03/05 08:10:07;;;;;;;27.10;14.75;;;3.90;99.90;;;;;;5043642;28;20527;-67
2022/03/05 08:12:36;;;;;;;29.52;16.08;;;4.00;99.90;;;;;;5020036;28;20046;-67
2022/03/05 08:15:04;;;;;;;29.40;15.20;;;4.10;99.90;;;;;;5046466;28;20499;-67
2022/03/05 08:17:32;;;;;;;31.65;16.55;;;4.20;99.90;;;;;;5041384;28;20220;-68
2022/03/05 08:19:59;;;;;;;30.23;16.35;;;4.30;99.90;;;;;;5027987;28;20049;-68
2022/03/05 08:22:28;;;;;;;28.30;14.82;;;4.50;99.90;;;;;;5032391;28;20049;-68
2022/03/05 08:24:55;;;;;;;28.08;14.60;;;4.70;99.90;;;;;;5045613;28;20072;-68
2022/03/05 08:27:23;;;;;;;27.30;14.35;;;4.70;99.90;;;;;;5033021;28;20034;-68
2022/03/05 08:29:50;;;;;;;25.55;14.10;;;4.90;99.90;;;;;;5031956;28;20711;-68
2022/03/05 08:32:17;;;;;;;28.33;14.45;;;5.00;99.90;;;;;;5044531;28;20068;-68
2022/03/05 08:34:45;;;;;;;26.20;13.88;;;5.10;99.90;;;;;;5031631;28;20624;-68
2022/03/05 08:37:12;;;;;;;29.48;14.23;;;5.40;99.90;;;;;;5031357;28;20484;-68
2022/03/05 08:39:39;;;;;;;25.65;13.93;;;5.60;99.90;;;;;;5028680;28;20060;-69
2022/03/05 08:42:08;;;;;;;25.73;14.10;;;5.80;99.90;;;;;;5027487;28;20052;-68
2022/03/05 08:44:35;;;;;;;24.25;13.18;;;6.00;99.90;;;;;;5029522;28;20077;-68
2022/03/05 08:47:03;;;;;;;25.50;13.98;;;6.10;99.90;;;;;;5030762;28;20079;-68
2022/03/05 08:49:31;;;;;;;26.10;14.43;;;6.50;99.90;;;;;;5034991;28;20045;-68
2022/03/05 08:51:58;;;;;;;26.75;14.90;;;6.60;99.90;;;;;;5038460;28;20099;-68
2022/03/05 08:54:25;;;;;;;24.98;13.68;;;6.70;99.90;;;;;;5043535;28;20060;-68
2022/03/05 08:56:53;;;;;;;27.42;15.50;;;6.70;99.90;;;;;;5036819;28;20137;-67
2022/03/05 08:59:20;;;;;;;31.02;15.95;;;6.70;99.90;;;;;;5024995;28;20049;-67
2022/03/05 09:01:47;;;;;;;31.25;16.80;;;6.60;99.90;;;;;;5031347;28;20046;-68
2022/03/05 09:04:15;;;;;;;24.58;13.70;;;6.60;99.90;;;;;;5031603;28;20045;-67
2022/03/05 09:06:42;;;;;;;21.55;12.77;;;6.60;99.90;;;;;;5034985;28;20044;-68
2022/03/05 09:09:10;;;;;;;23.17;12.30;;;6.60;99.90;;;;;;5035691;28;20052;-68
2022/03/05 09:11:38;;;;;;;22.88;13.50;;;6.40;99.90;;;;;;5031519;28;20120;-68
2022/03/05 09:14:07;;;;;;;26.73;13.93;;;6.30;99.90;;;;;;5035213;28;20053;-68
2022/03/05 09:16:36;;;;;;;24.05;12.82;;;6.40;99.90;;;;;;5027530;28;20425;-68
2022/03/05 09:19:05;;;;;;;20.60;11.90;;;6.40;99.90;;;;;;5034663;28;20041;-67
2022/03/05 09:21:34;;;;;;;20.55;12.10;;;6.50;99.90;;;;;;5034747;28;20484;-68
2022/03/05 09:24:03;;;;;;;21.50;11.88;;;6.50;99.90;;;;;;5029253;28;20064;-68
2022/03/05 09:26:31;;;;;;;20.98;12.50;;;6.30;99.90;;;;;;5026710;28;20488;-69
2022/03/05 09:28:58;;;;;;;21.08;11.95;;;6.00;99.90;;;;;;5034280;28;20064;-68
2022/03/05 09:31:26;;;;;;;20.58;11.55;;;5.80;99.90;;;;;;5034814;28;20470;-68
2022/03/05 09:33:54;;;;;;;21.38;11.77;;;5.70;99.90;;;;;;5034098;28;20054;-68
2022/03/05 09:36:21;;;;;;;24.25;12.93;;;5.50;99.90;;;;;;5045191;28;20029;-68
2022/03/05 09:38:48;;;;;;;23.02;11.50;;;5.60;99.90;;;;;;5046595;28;20119;-68
2022/03/05 09:41:16;;;;;;;19.35;11.30;;;5.70;99.90;;;;;;5046116;28;20053;-68
2022/03/05 09:43:44;;;;;;;17.10;8.93;;;5.80;99.90;;;;;;5035778;28;20056;-68
2022/03/05 09:46:11;;;;;;;14.07;8.35;;;5.90;99.90;;;;;;5031849;28;20085;-68
2022/03/05 09:48:40;;;;;;;14.63;8.07;;;6.20;99.90;;;;;;5031697;28;20045;-68
2022/03/05 09:51:08;;;;;;;13.25;6.03;;;6.40;99.90;;;;;;5036116;28;20037;-68
2022/03/05 09:53:35;;;;;;;9.55;5.32;;;6.70;99.90;;;;;;5039130;28;20084;-68
2022/03/05 09:56:02;;;;;;;12.00;5.53;;;6.90;99.90;;;;;;5034007;28;20053;-68
2022/03/05 09:58:48;;;;;;;12.48;5.93;;;7.10;99.90;;;;;;5032671;28;20525;-68
2022/03/05 10:01:17;;;;;;;10.50;6.70;;;7.20;99.90;;;;;;5031411;28;20106;-68
2022/03/05 10:03:46;;;;;;;13.13;7.20;;;7.30;99.90;;;;;;5034052;28;20106;-68
2022/03/05 10:06:16;;;;;;;11.85;6.47;;;7.40;99.90;;;;;;5034645;28;20520;-68
2022/03/05 10:08:45;;;;;;;14.35;7.43;;;7.70;99.90;;;;;;5032989;28;20547;-68
2022/03/05 10:11:13;;;;;;;14.88;8.70;;;8.00;99.90;;;;;;5039266;28;20807;-69
2022/03/05 10:13:42;;;;;;;9.77;4.93;;;8.20;99.90;;;;;;5035991;28;20108;-68
2022/03/05 10:16:28;;;;;;;8.15;4.53;;;8.20;99.30;;;;;;5027058;28;20037;-67
2022/03/05 10:18:57;;;;;;;13.10;5.38;;;8.10;98.80;;;;;;5032553;28;20045;-67
2022/03/05 10:21:29;;;;;;;10.18;4.95;;;8.10;98.30;;;;;;5033112;28;20053;-68
2022/03/05 10:24:07;;;;;;;;;;;8.20;98.60;;;;;;5032777;28;20037;-68
2022/03/05 10:26:55;;;;;;;11.55;6.22;;;8.00;98.30;;;;;;5033845;28;19971;-68
2022/03/05 10:29:34;;;;;;;12.18;5.63;;;7.90;98.00;;;;;;5032505;28;20507;-67
2022/03/05 10:32:08;;;;;;;10.35;5.40;;;8.00;98.60;;;;;;5036570;28;20072;-68
2022/03/05 10:34:42;;;;;;;10.45;5.70;;;8.00;97.60;;;;;;5033808;28;20045;-68
2022/03/05 10:37:10;;;;;;;11.80;6.07;;;7.90;97.20;;;;;;5022037;28;20042;-68
2022/03/05 10:39:38;;;;;;;9.95;5.18;;;7.90;97.40;;;;;;5021076;28;20104;-68
2022/03/05 10:42:26;;;;;;;9.50;4.97;;;8.00;96.70;;;;;;5032081;28;20069;-68
2022/03/05 10:45:18;;;;;;;11.07;5.95;;;8.00;95.60;;;;;;5032560;28;20055;-68
2022/03/05 10:47:47;;;;;;;9.85;5.65;;;8.00;95.50;;;;;;5028188;28;20515;-67
2022/03/05 10:50:29;;;;;;;11.05;6.40;;;8.00;94.70;;;;;;5027005;28;20122;-67
2022/03/05 10:53:00;;;;;;;9.90;5.35;;;8.00;95.40;;;;;;5030695;28;20041;-68
2022/03/05 10:55:38;;;;;;;8.20;5.13;;;8.00;95.60;;;;;;5034554;28;20049;-68
2022/03/05 10:58:20;;;;;;;9.35;4.57;;;8.10;94.30;;;;;;5030800;28;20779;-68
2022/03/05 11:00:49;;;;;;;9.48;4.57;;;8.40;94.20;;;;;;5020856;28;20044;-68
2022/03/05 11:03:18;;;;;;;8.52;4.57;;;8.40;93.00;;;;;;5029520;28;20417;-68
2022/03/05 11:05:46;;;;;;;7.72;4.50;;;8.40;93.10;;;;;;5031662;28;20047;-68
2022/03/05 11:08:16;;;;;;;8.68;4.95;;;8.50;93.10;;;;;;5033242;28;20033;-68
2022/03/05 11:10:46;;;;;;;10.13;5.75;;;8.60;93.10;;;;;;5033975;28;20067;-68
2022/03/05 11:13:14;;;;;;;9.75;6.03;;;8.70;93.30;;;;;;5038668;28;20056;-67
2022/03/05 11:15:42;;;;;;;11.85;7.10;;;8.80;93.50;;;;;;5041558;28;20148;-68
2022/03/05 11:18:10;;;;;;;10.20;6.00;;;9.10;93.40;;;;;;5030042;28;20080;-67
2022/03/05 11:20:47;;;;;;;10.77;5.93;;;9.40;93.30;;;;;;5034957;28;20042;-68
2022/03/05 11:23:17;;;;;;;11.50;6.90;;;9.30;92.40;;;;;;5030475;28;20069;-66
2022/03/05 11:25:44;;;;;;;12.63;6.90;;;9.20;92.30;;;;;;5041964;28;20198;-68
2022/03/05 11:28:19;;;;;;;9.65;5.43;;;9.30;92.40;;;;;;5041077;28;20041;-67
2022/03/05 11:30:46;;;;;;;10.80;6.35;;;9.30;92.30;;;;;;5039107;28;20500;-68
2022/03/05 11:33:23;;;;;;;10.90;6.22;;;9.40;92.40;;;;;;5033253;28;20162;-67
2022/03/05 11:36:03;;;;;;;9.88;5.80;;;9.60;91.80;;;;;;5042982;28;20071;-69
2022/03/05 11:38:35;;;;;;;10.32;6.00;;;9.70;91.30;;;;;;5039912;28;20049;-68
2022/03/05 11:41:25;;;;;;;10.75;5.75;;;9.60;90.90;;;;;;5023188;28;20069;-67
2022/03/05 11:43:53;;;;;;;9.77;5.25;;;9.50;90.60;;;;;;5035791;28;20088;-68
2022/03/05 11:46:22;;;;;;;9.18;4.93;;;9.30;90.80;;;;;;5038397;28;20118;-67
2022/03/05 11:49:15;;;;;;;9.38;5.18;;;9.40;90.60;;;;;;5026128;28;20369;-67
2022/03/05 11:51:57;;;;;;;9.73;5.40;;;9.60;90.70;;;;;;5017594;28;20057;-68
2022/03/05 11:54:26;;;;;;;10.18;5.55;;;9.70;90.10;;;;;;5038385;28;20052;-67
2022/03/05 11:57:14;;;;;;;11.60;6.10;;;9.70;90.00;;;;;;5020242;28;20049;-68
2022/03/05 11:59:51;;;;;;;17.55;7.97;;;9.50;90.00;;;;;;5037265;28;20041;-69
2022/03/05 12:02:42;;;;;;;11.55;6.13;;;9.40;90.20;;;;;;5027260;28;20045;-69
2022/03/05 12:05:30;;;;;;;11.52;6.13;;;8.90;91.10;;;;;;5046271;28;20040;-68
2022/03/05 12:07:57;;;;;;;11.10;6.68;;;8.80;91.20;;;;;;5040020;28;20041;-68
2022/03/05 12:10:25;;;;;;;9.90;5.85;;;8.70;91.50;;;;;;5016570;28;20452;-69
2022/03/05 12:12:59;;;;;;;10.02;5.85;;;8.50;91.40;;;;;;5035006;28;20503;-68
2022/03/05 12:15:34;;;;;;;11.18;6.47;;;8.50;91.50;;;;;;5029488;28;20040;-68
2022/03/05 12:18:04;;;;;;;11.48;6.28;;;8.50;91.50;;;;;;5035754;28;20045;-68
2022/03/05 12:20:35;;;;;;;11.10;6.45;;;8.40;92.10;;;;;;5042091;28;20053;-68
2022/03/05 12:23:04;;;;;;;11.27;6.43;;;8.30;92.00;;;;;;5024415;28;20605;-67
2022/03/05 12:25:37;;;;;;;11.30;5.88;;;8.30;92.30;;;;;;5046632;28;20056;-68
2022/03/05 12:28:12;;;;;;;11.68;6.22;;;8.20;92.00;;;;;;5035153;28;20034;-67
2022/03/05 12:30:40;;;;;;;10.77;5.68;;;8.20;92.10;;;;;;5042296;28;20432;-67
2022/03/05 12:33:09;;;;;;;12.45;6.53;;;8.20;91.80;;;;;;5027989;28;20053;-67
2022/03/05 12:35:38;;;;;;;9.98;5.57;;;8.00;91.90;;;;;;5030739;28;20041;-67
2022/03/05 12:38:07;;;;;;;12.40;7.03;;;8.00;92.10;;;;;;5028386;28;20109;-66
2022/03/05 12:40:42;;;;;;;12.02;6.40;;;7.90;92.30;;;;;;5029109;28;20033;-66
2022/03/05 12:43:09;;;;;;;12.43;6.20;;;7.80;92.70;;;;;;5024798;28;20069;-65
2022/03/05 12:45:40;;;;;;;12.77;7.50;;;7.70;93.00;;;;;;5045924;28;20447;-65
2022/03/05 12:48:13;;;;;;;10.98;6.65;;;7.50;93.30;;;;;;5030976;28;20047;-66